EJU59PD LCLK-EDDB
Flight info
| Callsign | EJU59PD |
|---|---|
| Flight time | 4h 8m |
| Altitude | 32000 |
| Route | PHA DCT GENOS DCT TOSKA DCT KUGGI DCT DIMIS DCT PETAK DCT GACMO DCT TIVNU DCT ZAG DCT PETOV DCT GOLVA DCT MILGO DCT EPOLA DCT LNZ DCT PINQI DCT GAVLI T203 ATGUP ATGUP1R |
| Aircraft | A320/M-SDE2E3FGHIJ1RWXYZ/LB1 |
Departure
| Time | 2026-05-07 16:01 |
|---|---|
| Airport | Larnaca International Airport (LCLK) |
Arrival
| Time | 2026-05-07 20:09 |
|---|---|
| Airport | Berlin Brandenburg Airport (EDDB) |
| Time | Latitude | Longitude | Altitude | Speed | Heading |
|---|---|---|---|---|---|
| 2026-05-07 15:47 | 34.86793 | 33.61045 | 20 ft | 0 kts | 50° |
| 2026-05-07 15:51 | 34.86780 | 33.61026 | 21 ft | 4 kts | 50° |
| 2026-05-07 15:51 | 34.86763 | 33.61000 | 20 ft | 4 kts | 56° |
| 2026-05-07 15:51 | 34.86750 | 33.60972 | 23 ft | 4 kts | 76° |
| 2026-05-07 15:51 | 34.86750 | 33.60942 | 22 ft | 4 kts | 128° |
| 2026-05-07 15:52 | 34.86756 | 33.60934 | 21 ft | 0 kts | 135° |
| 2026-05-07 15:55 | 34.86731 | 33.60963 | 20 ft | 12 kts | 135° |
| 2026-05-07 15:55 | 34.86652 | 33.61060 | 20 ft | 17 kts | 134° |
| 2026-05-07 15:56 | 34.86668 | 33.61167 | 20 ft | 14 kts | 46° |
| 2026-05-07 15:56 | 34.86753 | 33.61272 | 20 ft | 22 kts | 45° |
| 2026-05-07 15:56 | 34.86879 | 33.61425 | 20 ft | 27 kts | 45° |
| 2026-05-07 15:56 | 34.87014 | 33.61590 | 20 ft | 28 kts | 45° |
| 2026-05-07 15:57 | 34.87153 | 33.61759 | 20 ft | 29 kts | 45° |
| 2026-05-07 15:57 | 34.87294 | 33.61934 | 22 ft | 29 kts | 45° |
| 2026-05-07 15:57 | 34.87439 | 33.62112 | 20 ft | 30 kts | 45° |
| 2026-05-07 15:57 | 34.87589 | 33.62294 | 20 ft | 31 kts | 45° |
| 2026-05-07 15:58 | 34.87741 | 33.62479 | 20 ft | 31 kts | 45° |
| 2026-05-07 15:58 | 34.87896 | 33.62669 | 20 ft | 32 kts | 45° |
| 2026-05-07 15:58 | 34.88052 | 33.62863 | 21 ft | 32 kts | 45° |
| 2026-05-07 15:58 | 34.88212 | 33.63059 | 20 ft | 33 kts | 45° |
| 2026-05-07 15:59 | 34.88373 | 33.63256 | 20 ft | 33 kts | 45° |
| 2026-05-07 15:59 | 34.88436 | 33.63390 | 20 ft | 10 kts | 109° |
| 2026-05-07 15:59 | 34.88394 | 33.63442 | 20 ft | 8 kts | 136° |
| 2026-05-07 15:59 | 34.88380 | 33.63502 | 21 ft | 13 kts | 90° |
| 2026-05-07 16:00 | 34.88311 | 33.63549 | 20 ft | 13 kts | 210° |
| 2026-05-07 16:00 | 34.88238 | 33.63452 | 20 ft | 24 kts | 225° |
| 2026-05-07 16:00 | 34.87980 | 33.63137 | 22 ft | 85 kts | 225° |
| 2026-05-07 16:00 | 34.87421 | 33.62453 | 21 ft | 141 kts | 225° |
| 2026-05-07 16:01 | 34.86643 | 33.61507 | 273 ft | 160 kts | 224° |
| 2026-05-07 16:01 | 34.85883 | 33.60587 | 1038 ft | 151 kts | 226° |
| 2026-05-07 16:01 | 34.85108 | 33.59628 | 1353 ft | 171 kts | 226° |
| 2026-05-07 16:01 | 34.84214 | 33.58541 | 1650 ft | 191 kts | 226° |
| 2026-05-07 16:02 | 34.83245 | 33.57352 | 2056 ft | 205 kts | 227° |
| 2026-05-07 16:02 | 34.82216 | 33.56064 | 2416 ft | 222 kts | 228° |
| 2026-05-07 16:02 | 34.81100 | 33.54636 | 2761 ft | 243 kts | 228° |
| 2026-05-07 16:02 | 34.79914 | 33.53080 | 3239 ft | 258 kts | 229° |
| 2026-05-07 16:03 | 34.78675 | 33.51421 | 3810 ft | 271 kts | 230° |
| 2026-05-07 16:03 | 34.77399 | 33.49705 | 4572 ft | 276 kts | 230° |
| 2026-05-07 16:03 | 34.76097 | 33.47976 | 5350 ft | 280 kts | 229° |
| 2026-05-07 16:03 | 34.74761 | 33.46227 | 6070 ft | 285 kts | 229° |
| 2026-05-07 16:04 | 34.73385 | 33.44446 | 6757 ft | 292 kts | 228° |
| 2026-05-07 16:04 | 34.71983 | 33.42648 | 7510 ft | 294 kts | 228° |
| 2026-05-07 16:04 | 34.70571 | 33.40844 | 8288 ft | 295 kts | 227° |
| 2026-05-07 16:04 | 34.69275 | 33.38909 | 9076 ft | 296 kts | 239° |
| 2026-05-07 16:05 | 34.68413 | 33.36646 | 9853 ft | 296 kts | 255° |
| 2026-05-07 16:05 | 34.68030 | 33.34187 | 10464 ft | 302 kts | 267° |
| 2026-05-07 16:05 | 34.68067 | 33.31551 | 10619 ft | 324 kts | 274° |
| 2026-05-07 16:05 | 34.68192 | 33.28744 | 10932 ft | 339 kts | 275° |
| 2026-05-07 16:06 | 34.68329 | 33.25864 | 11535 ft | 344 kts | 275° |
| 2026-05-07 16:06 | 34.68463 | 33.22952 | 12197 ft | 347 kts | 274° |
| 2026-05-07 16:06 | 34.68590 | 33.20054 | 12864 ft | 349 kts | 274° |
| 2026-05-07 16:06 | 34.68714 | 33.17094 | 13532 ft | 352 kts | 274° |
| 2026-05-07 16:07 | 34.68834 | 33.14110 | 14160 ft | 355 kts | 274° |
| 2026-05-07 16:07 | 34.68952 | 33.11105 | 14774 ft | 356 kts | 274° |
| 2026-05-07 16:07 | 34.69070 | 33.08095 | 15400 ft | 357 kts | 274° |
| 2026-05-07 16:07 | 34.69188 | 33.05033 | 16028 ft | 358 kts | 275° |
| 2026-05-07 16:08 | 34.69303 | 33.02045 | 16636 ft | 360 kts | 275° |
| 2026-05-07 16:08 | 34.69419 | 32.99006 | 17255 ft | 361 kts | 275° |
| 2026-05-07 16:08 | 34.69535 | 32.95959 | 17855 ft | 362 kts | 275° |
| 2026-05-07 16:08 | 34.69652 | 32.92900 | 18448 ft | 363 kts | 275° |
| 2026-05-07 16:09 | 34.69768 | 32.89825 | 18953 ft | 365 kts | 275° |
| 2026-05-07 16:09 | 34.69882 | 32.86737 | 19442 ft | 367 kts | 275° |
| 2026-05-07 16:09 | 34.69995 | 32.83624 | 19930 ft | 370 kts | 275° |
| 2026-05-07 16:09 | 34.70109 | 32.80495 | 20409 ft | 372 kts | 275° |
| 2026-05-07 16:10 | 34.70223 | 32.77348 | 20906 ft | 374 kts | 275° |
| 2026-05-07 16:10 | 34.70338 | 32.74178 | 21389 ft | 376 kts | 275° |
| 2026-05-07 16:10 | 34.70455 | 32.70990 | 21857 ft | 379 kts | 275° |
| 2026-05-07 16:10 | 34.70572 | 32.67779 | 22330 ft | 382 kts | 275° |
| 2026-05-07 16:11 | 34.70687 | 32.64545 | 22800 ft | 384 kts | 275° |
| 2026-05-07 16:11 | 34.70802 | 32.61293 | 23222 ft | 387 kts | 275° |
| 2026-05-07 16:11 | 34.70918 | 32.58016 | 23684 ft | 389 kts | 275° |
| 2026-05-07 16:11 | 34.71034 | 32.54724 | 24056 ft | 391 kts | 275° |
| 2026-05-07 16:12 | 34.71146 | 32.51416 | 24431 ft | 393 kts | 275° |
| 2026-05-07 16:12 | 34.71049 | 32.48080 | 24790 ft | 397 kts | 269° |
| 2026-05-07 16:12 | 34.70873 | 32.44774 | 25141 ft | 398 kts | 270° |
| 2026-05-07 16:12 | 34.70691 | 32.41409 | 25485 ft | 400 kts | 270° |
| 2026-05-07 16:13 | 34.70510 | 32.38031 | 25827 ft | 402 kts | 270° |
| 2026-05-07 16:13 | 34.70329 | 32.34637 | 26164 ft | 403 kts | 270° |
| 2026-05-07 16:13 | 34.70148 | 32.31232 | 26492 ft | 405 kts | 270° |
| 2026-05-07 16:13 | 34.69965 | 32.27814 | 26817 ft | 406 kts | 270° |
| 2026-05-07 16:14 | 34.69781 | 32.24383 | 27142 ft | 408 kts | 270° |
| 2026-05-07 16:14 | 34.69594 | 32.20938 | 27459 ft | 409 kts | 270° |
| 2026-05-07 16:14 | 34.69404 | 32.17480 | 27773 ft | 411 kts | 270° |
| 2026-05-07 16:14 | 34.69212 | 32.14009 | 28083 ft | 412 kts | 270° |
| 2026-05-07 16:15 | 34.69021 | 32.10524 | 28390 ft | 414 kts | 270° |
| 2026-05-07 16:15 | 34.68830 | 32.07030 | 28695 ft | 415 kts | 270° |
| 2026-05-07 16:15 | 34.68636 | 32.03522 | 28984 ft | 417 kts | 270° |
| 2026-05-07 16:15 | 34.68439 | 32.00004 | 29267 ft | 418 kts | 270° |
| 2026-05-07 16:16 | 34.68240 | 31.96471 | 29548 ft | 420 kts | 270° |
| 2026-05-07 16:16 | 34.68039 | 31.92932 | 29816 ft | 421 kts | 270° |
| 2026-05-07 16:16 | 34.68070 | 31.89394 | 30076 ft | 418 kts | 279° |
| 2026-05-07 16:16 | 34.68539 | 31.85924 | 30303 ft | 416 kts | 284° |
| 2026-05-07 16:17 | 34.69098 | 31.82467 | 30521 ft | 417 kts | 284° |
| 2026-05-07 16:17 | 34.69652 | 31.79008 | 30764 ft | 417 kts | 284° |
| 2026-05-07 16:17 | 34.70192 | 31.75597 | 31074 ft | 415 kts | 284° |
| 2026-05-07 16:17 | 34.70735 | 31.72157 | 31394 ft | 414 kts | 284° |
| 2026-05-07 16:18 | 34.71276 | 31.68732 | 31704 ft | 412 kts | 284° |
| 2026-05-07 16:18 | 34.71813 | 31.65324 | 32017 ft | 410 kts | 284° |
| 2026-05-07 16:18 | 34.72347 | 31.61924 | 32329 ft | 408 kts | 284° |
| 2026-05-07 16:18 | 34.72878 | 31.58539 | 32635 ft | 407 kts | 284° |
| 2026-05-07 16:19 | 34.73406 | 31.55170 | 32938 ft | 405 kts | 284° |
| 2026-05-07 16:19 | 34.73935 | 31.51808 | 33250 ft | 404 kts | 284° |
| 2026-05-07 16:19 | 34.74457 | 31.48465 | 33544 ft | 402 kts | 284° |
| 2026-05-07 16:19 | 34.74976 | 31.45129 | 33838 ft | 401 kts | 284° |
| 2026-05-07 16:20 | 34.75491 | 31.41803 | 34126 ft | 400 kts | 284° |
| 2026-05-07 16:20 | 34.76003 | 31.38487 | 34369 ft | 399 kts | 284° |
| 2026-05-07 16:20 | 34.76514 | 31.35174 | 34578 ft | 398 kts | 284° |
| 2026-05-07 16:20 | 34.77025 | 31.31866 | 34766 ft | 398 kts | 284° |
| 2026-05-07 16:21 | 34.77539 | 31.28553 | 34949 ft | 398 kts | 284° |
| 2026-05-07 16:21 | 34.78053 | 31.25244 | 35127 ft | 398 kts | 284° |
| 2026-05-07 16:21 | 34.78566 | 31.21933 | 35296 ft | 399 kts | 284° |
| 2026-05-07 16:21 | 34.79077 | 31.18615 | 35457 ft | 399 kts | 284° |
| 2026-05-07 16:22 | 34.79586 | 31.15298 | 35619 ft | 399 kts | 284° |
| 2026-05-07 16:22 | 34.80086 | 31.12026 | 35780 ft | 399 kts | 284° |
| 2026-05-07 16:22 | 34.80592 | 31.08708 | 35929 ft | 399 kts | 283° |
| 2026-05-07 16:22 | 34.81097 | 31.05388 | 36088 ft | 399 kts | 283° |
| 2026-05-07 16:23 | 34.81602 | 31.02071 | 36141 ft | 399 kts | 283° |
| 2026-05-07 16:23 | 34.82602 | 30.95446 | 36136 ft | 398 kts | 283° |
| 2026-05-07 16:24 | 34.83596 | 30.88829 | 36140 ft | 397 kts | 283° |
| 2026-05-07 16:24 | 34.84601 | 30.82218 | 36134 ft | 397 kts | 283° |
| 2026-05-07 16:25 | 34.85608 | 30.75608 | 36145 ft | 397 kts | 283° |
| 2026-05-07 16:25 | 34.86602 | 30.69001 | 36142 ft | 397 kts | 283° |
| 2026-05-07 16:26 | 34.87579 | 30.62389 | 36140 ft | 397 kts | 283° |
| 2026-05-07 16:26 | 34.88554 | 30.55777 | 36148 ft | 396 kts | 283° |
| 2026-05-07 16:27 | 34.89529 | 30.49172 | 36144 ft | 396 kts | 283° |
| 2026-05-07 16:27 | 34.90500 | 30.42568 | 36143 ft | 396 kts | 283° |
| 2026-05-07 16:28 | 34.91461 | 30.35971 | 36149 ft | 395 kts | 283° |
| 2026-05-07 16:28 | 34.92427 | 30.29377 | 36150 ft | 395 kts | 283° |
| 2026-05-07 16:29 | 34.93210 | 30.24015 | 36146 ft | 395 kts | 283° |
| 2026-05-07 16:29 | 34.94098 | 30.19134 | 36156 ft | 394 kts | 285° |
| 2026-05-07 16:30 | 34.94871 | 30.14153 | 36156 ft | 396 kts | 282° |
| 2026-05-07 16:30 | 34.95063 | 30.09919 | 36242 ft | 391 kts | 271° |
| 2026-05-07 16:31 | 34.94974 | 30.05085 | 36259 ft | 385 kts | 279° |
| 2026-05-07 16:31 | 34.95102 | 30.03808 | 36230 ft | 385 kts | 283° |
| 2026-05-07 16:32 | 34.96557 | 29.99101 | 36236 ft | 378 kts | 298° |
| 2026-05-07 16:32 | 34.99045 | 29.94922 | 36230 ft | 384 kts | 307° |
| 2026-05-07 16:33 | 35.01645 | 29.90118 | 36232 ft | 388 kts | 301° |
| 2026-05-07 16:33 | 35.04049 | 29.84772 | 36131 ft | 389 kts | 299° |
| 2026-05-07 16:34 | 35.06663 | 29.78894 | 36147 ft | 389 kts | 300° |
| 2026-05-07 16:34 | 35.09010 | 29.74552 | 36186 ft | 386 kts | 309° |
| 2026-05-07 16:35 | 35.11689 | 29.70183 | 36120 ft | 383 kts | 299° |
| 2026-05-07 16:35 | 35.13905 | 29.64467 | 36148 ft | 388 kts | 295° |
| 2026-05-07 16:36 | 35.16213 | 29.58551 | 36143 ft | 389 kts | 298° |
| 2026-05-07 16:36 | 35.18749 | 29.52954 | 36150 ft | 388 kts | 301° |
| 2026-05-07 16:37 | 35.20588 | 29.49114 | 36156 ft | 388 kts | 301° |
| 2026-05-07 16:37 | 35.23318 | 29.43416 | 36150 ft | 388 kts | 301° |
| 2026-05-07 16:38 | 35.25991 | 29.37725 | 36150 ft | 388 kts | 300° |
| 2026-05-07 16:38 | 35.28660 | 29.31985 | 36148 ft | 388 kts | 300° |
| 2026-05-07 16:39 | 35.31324 | 29.26239 | 36151 ft | 388 kts | 300° |
| 2026-05-07 16:39 | 35.33991 | 29.20489 | 36149 ft | 388 kts | 300° |
| 2026-05-07 16:40 | 35.36653 | 29.14737 | 36151 ft | 388 kts | 300° |
| 2026-05-07 16:40 | 35.39309 | 29.08979 | 36147 ft | 388 kts | 300° |
| 2026-05-07 16:41 | 35.41966 | 29.03217 | 36149 ft | 388 kts | 300° |
| 2026-05-07 16:41 | 35.44623 | 28.97456 | 36143 ft | 388 kts | 300° |
| 2026-05-07 16:42 | 35.47278 | 28.91687 | 36146 ft | 388 kts | 300° |
| 2026-05-07 16:42 | 35.49931 | 28.85918 | 36143 ft | 388 kts | 300° |
| 2026-05-07 16:43 | 35.52579 | 28.80142 | 36143 ft | 388 kts | 300° |
| 2026-05-07 16:43 | 35.55228 | 28.74366 | 36141 ft | 388 kts | 300° |
| 2026-05-07 16:44 | 35.57873 | 28.68585 | 36145 ft | 388 kts | 300° |
| 2026-05-07 16:44 | 35.60494 | 28.62837 | 36142 ft | 388 kts | 300° |
| 2026-05-07 16:45 | 35.63132 | 28.57048 | 36145 ft | 388 kts | 300° |
| 2026-05-07 16:45 | 35.65763 | 28.51257 | 36143 ft | 388 kts | 300° |
| 2026-05-07 16:46 | 35.68393 | 28.45458 | 36148 ft | 388 kts | 300° |
| 2026-05-07 16:46 | 35.71019 | 28.39665 | 36149 ft | 388 kts | 300° |
| 2026-05-07 16:47 | 35.73646 | 28.33866 | 36145 ft | 388 kts | 300° |
| 2026-05-07 16:47 | 35.76269 | 28.28063 | 36141 ft | 388 kts | 300° |
| 2026-05-07 16:48 | 35.78888 | 28.22261 | 36143 ft | 388 kts | 300° |
| 2026-05-07 16:48 | 35.81501 | 28.16452 | 36139 ft | 388 kts | 300° |
| 2026-05-07 16:49 | 35.84112 | 28.10638 | 36143 ft | 388 kts | 300° |
| 2026-05-07 16:49 | 35.86725 | 28.04826 | 36137 ft | 388 kts | 300° |
| 2026-05-07 16:50 | 35.89338 | 27.99013 | 36143 ft | 388 kts | 300° |
| 2026-05-07 16:50 | 35.91919 | 27.93223 | 36142 ft | 388 kts | 300° |
| 2026-05-07 16:51 | 35.94514 | 27.87392 | 36142 ft | 388 kts | 300° |
| 2026-05-07 16:51 | 35.97116 | 27.81558 | 36136 ft | 388 kts | 300° |
| 2026-05-07 16:52 | 35.99716 | 27.75718 | 36143 ft | 388 kts | 300° |
| 2026-05-07 16:52 | 36.02311 | 27.69868 | 36142 ft | 388 kts | 300° |
| 2026-05-07 16:53 | 36.04905 | 27.64014 | 36140 ft | 389 kts | 300° |
| 2026-05-07 16:53 | 36.07499 | 27.58151 | 36137 ft | 389 kts | 300° |
| 2026-05-07 16:54 | 36.10094 | 27.52280 | 36147 ft | 389 kts | 299° |
| 2026-05-07 16:54 | 36.12687 | 27.46397 | 36140 ft | 390 kts | 299° |
| 2026-05-07 16:55 | 36.15276 | 27.40506 | 36142 ft | 390 kts | 299° |
| 2026-05-07 16:55 | 36.17867 | 27.34603 | 36143 ft | 390 kts | 299° |
| 2026-05-07 16:56 | 36.20458 | 27.28696 | 36143 ft | 391 kts | 299° |
| 2026-05-07 16:56 | 36.24348 | 27.19820 | 36142 ft | 391 kts | 299° |
| 2026-05-07 16:57 | 36.26927 | 27.13933 | 36146 ft | 391 kts | 299° |
| 2026-05-07 16:57 | 36.29514 | 27.07999 | 36139 ft | 392 kts | 299° |
| 2026-05-07 16:58 | 36.32101 | 27.02056 | 36142 ft | 392 kts | 299° |
| 2026-05-07 16:58 | 36.34687 | 26.96106 | 36143 ft | 392 kts | 299° |
| 2026-05-07 16:59 | 36.37265 | 26.90143 | 36140 ft | 392 kts | 299° |
| 2026-05-07 16:59 | 36.39845 | 26.84172 | 36142 ft | 393 kts | 299° |
| 2026-05-07 17:00 | 36.42430 | 26.78205 | 36143 ft | 393 kts | 299° |
| 2026-05-07 17:00 | 36.45010 | 26.72223 | 36136 ft | 393 kts | 299° |
| 2026-05-07 17:01 | 36.47549 | 26.66204 | 36183 ft | 393 kts | 297° |
| 2026-05-07 17:01 | 36.49763 | 26.60025 | 36364 ft | 395 kts | 293° |
| 2026-05-07 17:02 | 36.50740 | 26.56833 | 36492 ft | 395 kts | 291° |
| 2026-05-07 17:02 | 36.51624 | 26.53595 | 36643 ft | 396 kts | 289° |
| 2026-05-07 17:02 | 36.52410 | 26.50320 | 36818 ft | 396 kts | 287° |
| 2026-05-07 17:02 | 36.53098 | 26.47011 | 37008 ft | 395 kts | 285° |
| 2026-05-07 17:03 | 36.53687 | 26.43677 | 37205 ft | 394 kts | 283° |
| 2026-05-07 17:03 | 36.54175 | 26.40329 | 37430 ft | 393 kts | 282° |
| 2026-05-07 17:03 | 36.54560 | 26.36974 | 37662 ft | 391 kts | 279° |
| 2026-05-07 17:03 | 36.54843 | 26.33619 | 37910 ft | 389 kts | 277° |
| 2026-05-07 17:04 | 36.55022 | 26.30272 | 38158 ft | 387 kts | 276° |
| 2026-05-07 17:04 | 36.55099 | 26.26942 | 38433 ft | 384 kts | 274° |
| 2026-05-07 17:04 | 36.55074 | 26.23635 | 38708 ft | 381 kts | 271° |
| 2026-05-07 17:04 | 36.54946 | 26.20361 | 38953 ft | 377 kts | 269° |
| 2026-05-07 17:05 | 36.54718 | 26.17132 | 39183 ft | 373 kts | 267° |
| 2026-05-07 17:05 | 36.54390 | 26.13955 | 39431 ft | 368 kts | 265° |
| 2026-05-07 17:05 | 36.53966 | 26.10845 | 39674 ft | 362 kts | 263° |
| 2026-05-07 17:05 | 36.53455 | 26.07846 | 39920 ft | 356 kts | 261° |
| 2026-05-07 17:06 | 36.52846 | 26.04888 | 40159 ft | 350 kts | 259° |
| 2026-05-07 17:06 | 36.52149 | 26.02019 | 40355 ft | 345 kts | 256° |
| 2026-05-07 17:06 | 36.50468 | 25.96362 | 40084 ft | 356 kts | 252° |
| 2026-05-07 17:07 | 36.49465 | 25.93519 | 39945 ft | 360 kts | 250° |
| 2026-05-07 17:07 | 36.48367 | 25.90728 | 40058 ft | 357 kts | 248° |
| 2026-05-07 17:07 | 36.47192 | 25.88037 | 40252 ft | 353 kts | 245° |
| 2026-05-07 17:07 | 36.45935 | 25.85419 | 40279 ft | 354 kts | 243° |
| 2026-05-07 17:08 | 36.44583 | 25.82836 | 40097 ft | 360 kts | 241° |
| 2026-05-07 17:08 | 36.43124 | 25.80272 | 39950 ft | 366 kts | 239° |
| 2026-05-07 17:08 | 36.40221 | 25.75070 | 39309 ft | 375 kts | 258° |
| 2026-05-07 17:09 | 36.39946 | 25.71857 | 38004 ft | 381 kts | 284° |
| 2026-05-07 17:09 | 36.40898 | 25.68785 | 36821 ft | 387 kts | 302° |
| 2026-05-07 17:09 | 36.42467 | 25.66075 | 36293 ft | 385 kts | 308° |
| 2026-05-07 17:09 | 36.44126 | 25.63441 | 36129 ft | 388 kts | 307° |
| 2026-05-07 17:10 | 36.47424 | 25.58092 | 36159 ft | 390 kts | 308° |
| 2026-05-07 17:10 | 36.50760 | 25.52766 | 36160 ft | 391 kts | 308° |
| 2026-05-07 17:11 | 36.54102 | 25.47501 | 36159 ft | 390 kts | 308° |
| 2026-05-07 17:11 | 36.57463 | 25.42210 | 36157 ft | 390 kts | 308° |
| 2026-05-07 17:12 | 36.60821 | 25.36913 | 36157 ft | 389 kts | 308° |
| 2026-05-07 17:12 | 36.64165 | 25.31612 | 36155 ft | 389 kts | 308° |
| 2026-05-07 17:13 | 36.67507 | 25.26313 | 36147 ft | 389 kts | 308° |
| 2026-05-07 17:13 | 36.70843 | 25.21010 | 36142 ft | 389 kts | 308° |
| 2026-05-07 17:14 | 36.74174 | 25.15708 | 36134 ft | 388 kts | 308° |
| 2026-05-07 17:14 | 36.77511 | 25.10412 | 36138 ft | 388 kts | 308° |
| 2026-05-07 17:15 | 36.80814 | 25.05143 | 36135 ft | 388 kts | 308° |
| 2026-05-07 17:15 | 36.84131 | 24.99837 | 36135 ft | 388 kts | 308° |
| 2026-05-07 17:16 | 36.87447 | 24.94537 | 36136 ft | 387 kts | 308° |
| 2026-05-07 17:16 | 36.90760 | 24.89228 | 36137 ft | 387 kts | 307° |
| 2026-05-07 17:17 | 36.94059 | 24.83911 | 36138 ft | 387 kts | 307° |
| 2026-05-07 17:17 | 36.97358 | 24.78600 | 36140 ft | 387 kts | 307° |
| 2026-05-07 17:18 | 37.00657 | 24.73291 | 36138 ft | 386 kts | 307° |
| 2026-05-07 17:18 | 37.03954 | 24.67981 | 36139 ft | 386 kts | 307° |
| 2026-05-07 17:19 | 37.07240 | 24.62670 | 36139 ft | 386 kts | 307° |
| 2026-05-07 17:19 | 37.10525 | 24.57350 | 36141 ft | 386 kts | 307° |
| 2026-05-07 17:20 | 37.13807 | 24.52034 | 36134 ft | 385 kts | 307° |
| 2026-05-07 17:20 | 37.17085 | 24.46720 | 36142 ft | 385 kts | 307° |
| 2026-05-07 17:21 | 37.20352 | 24.41401 | 36137 ft | 385 kts | 307° |
| 2026-05-07 17:21 | 37.23615 | 24.36084 | 36139 ft | 384 kts | 307° |
| 2026-05-07 17:22 | 37.26855 | 24.30800 | 36136 ft | 384 kts | 307° |
| 2026-05-07 17:22 | 37.30109 | 24.25483 | 36140 ft | 384 kts | 307° |
| 2026-05-07 17:23 | 37.33359 | 24.20157 | 36130 ft | 384 kts | 307° |
| 2026-05-07 17:23 | 37.36605 | 24.14832 | 36138 ft | 384 kts | 307° |
| 2026-05-07 17:24 | 37.39847 | 24.09507 | 36130 ft | 383 kts | 307° |
| 2026-05-07 17:24 | 37.43086 | 24.04186 | 36130 ft | 383 kts | 307° |
| 2026-05-07 17:25 | 37.46321 | 23.98860 | 36126 ft | 383 kts | 307° |
| 2026-05-07 17:25 | 37.49554 | 23.93535 | 36129 ft | 383 kts | 306° |
| 2026-05-07 17:26 | 37.52237 | 23.89108 | 36124 ft | 382 kts | 306° |
| 2026-05-07 17:26 | 37.55974 | 23.82914 | 36124 ft | 382 kts | 306° |
| 2026-05-07 17:27 | 37.59188 | 23.77579 | 36121 ft | 382 kts | 306° |
| 2026-05-07 17:27 | 37.62398 | 23.72249 | 36122 ft | 382 kts | 306° |
| 2026-05-07 17:28 | 37.65086 | 23.67779 | 36117 ft | 381 kts | 306° |
| 2026-05-07 17:28 | 37.68269 | 23.62481 | 36114 ft | 381 kts | 306° |
| 2026-05-07 17:29 | 37.71468 | 23.57141 | 36108 ft | 381 kts | 306° |
| 2026-05-07 17:29 | 37.74659 | 23.51801 | 36110 ft | 381 kts | 306° |
| 2026-05-07 17:30 | 37.77857 | 23.46458 | 36113 ft | 381 kts | 306° |
| 2026-05-07 17:30 | 37.81366 | 23.41456 | 36118 ft | 382 kts | 314° |
| 2026-05-07 17:31 | 37.85236 | 23.36851 | 36118 ft | 382 kts | 314° |
| 2026-05-07 17:31 | 37.89094 | 23.32231 | 36123 ft | 382 kts | 314° |
| 2026-05-07 17:32 | 37.92947 | 23.27615 | 36119 ft | 381 kts | 314° |
| 2026-05-07 17:32 | 37.96781 | 23.23031 | 36118 ft | 381 kts | 314° |
| 2026-05-07 17:33 | 38.00629 | 23.18415 | 36112 ft | 381 kts | 314° |
| 2026-05-07 17:33 | 38.04473 | 23.13784 | 36109 ft | 381 kts | 314° |
| 2026-05-07 17:34 | 38.08317 | 23.09156 | 36108 ft | 380 kts | 314° |
| 2026-05-07 17:34 | 38.12154 | 23.04534 | 36111 ft | 380 kts | 314° |
| 2026-05-07 17:35 | 38.15984 | 22.99911 | 36111 ft | 380 kts | 313° |
| 2026-05-07 17:35 | 38.19806 | 22.95286 | 36111 ft | 379 kts | 313° |
| 2026-05-07 17:36 | 38.23625 | 22.90669 | 36110 ft | 379 kts | 313° |
| 2026-05-07 17:36 | 38.27439 | 22.86054 | 36114 ft | 378 kts | 313° |
| 2026-05-07 17:37 | 38.31245 | 22.81440 | 36104 ft | 377 kts | 313° |
| 2026-05-07 17:37 | 38.35015 | 22.76851 | 36105 ft | 377 kts | 313° |
| 2026-05-07 17:38 | 38.38801 | 22.72227 | 36099 ft | 376 kts | 313° |
| 2026-05-07 17:38 | 38.42586 | 22.67607 | 36107 ft | 376 kts | 313° |
| 2026-05-07 17:39 | 38.46363 | 22.63006 | 36111 ft | 375 kts | 313° |
| 2026-05-07 17:39 | 38.50130 | 22.58391 | 36113 ft | 374 kts | 313° |
| 2026-05-07 17:40 | 38.53888 | 22.53766 | 36115 ft | 375 kts | 313° |
| 2026-05-07 17:40 | 38.57645 | 22.49145 | 36123 ft | 375 kts | 313° |
| 2026-05-07 17:41 | 38.61402 | 22.44535 | 36122 ft | 374 kts | 313° |
| 2026-05-07 17:41 | 38.65153 | 22.39926 | 36124 ft | 374 kts | 312° |
| 2026-05-07 17:42 | 38.68889 | 22.35310 | 36123 ft | 373 kts | 312° |
| 2026-05-07 17:42 | 38.72618 | 22.30698 | 36127 ft | 372 kts | 313° |
| 2026-05-07 17:43 | 38.76319 | 22.26121 | 36126 ft | 372 kts | 312° |
| 2026-05-07 17:43 | 38.80041 | 22.21516 | 36128 ft | 372 kts | 312° |
| 2026-05-07 17:44 | 38.83757 | 22.16905 | 36124 ft | 372 kts | 312° |
| 2026-05-07 17:44 | 38.87465 | 22.12293 | 36120 ft | 371 kts | 312° |
| 2026-05-07 17:45 | 38.91166 | 22.07679 | 36120 ft | 371 kts | 311° |
| 2026-05-07 17:45 | 38.94868 | 22.03067 | 36113 ft | 371 kts | 311° |
| 2026-05-07 17:46 | 38.98562 | 21.98454 | 36117 ft | 370 kts | 311° |
| 2026-05-07 17:46 | 39.02248 | 21.93845 | 36113 ft | 369 kts | 311° |
| 2026-05-07 17:47 | 39.05903 | 21.89261 | 36112 ft | 369 kts | 311° |
| 2026-05-07 17:47 | 39.09581 | 21.84647 | 36112 ft | 369 kts | 311° |
| 2026-05-07 17:48 | 39.13258 | 21.80033 | 36051 ft | 368 kts | 310° |
| 2026-05-07 17:48 | 39.16861 | 21.75505 | 36111 ft | 358 kts | 310° |
| 2026-05-07 17:49 | 39.20411 | 21.71041 | 36119 ft | 356 kts | 310° |
| 2026-05-07 17:49 | 39.23953 | 21.66573 | 36124 ft | 356 kts | 310° |
| 2026-05-07 17:50 | 39.27494 | 21.62104 | 36117 ft | 356 kts | 310° |
| 2026-05-07 17:50 | 39.31024 | 21.57626 | 36116 ft | 355 kts | 310° |
| 2026-05-07 17:51 | 39.34546 | 21.53146 | 36124 ft | 356 kts | 310° |
| 2026-05-07 17:51 | 39.38080 | 21.48671 | 36117 ft | 355 kts | 310° |
| 2026-05-07 17:52 | 39.41610 | 21.44195 | 36110 ft | 356 kts | 310° |
| 2026-05-07 17:52 | 39.45106 | 21.39736 | 36119 ft | 355 kts | 310° |
| 2026-05-07 17:53 | 39.48628 | 21.35247 | 36116 ft | 355 kts | 309° |
| 2026-05-07 17:53 | 39.52144 | 21.30743 | 36116 ft | 355 kts | 309° |
| 2026-05-07 17:54 | 39.55662 | 21.26258 | 36111 ft | 355 kts | 309° |
| 2026-05-07 17:54 | 39.59177 | 21.21762 | 36119 ft | 355 kts | 309° |
| 2026-05-07 17:55 | 39.62684 | 21.17258 | 36119 ft | 355 kts | 309° |
| 2026-05-07 17:55 | 39.66181 | 21.12749 | 36118 ft | 354 kts | 309° |
| 2026-05-07 17:56 | 39.69678 | 21.08248 | 36122 ft | 354 kts | 309° |
| 2026-05-07 17:56 | 39.73167 | 21.03745 | 36115 ft | 353 kts | 309° |
| 2026-05-07 17:57 | 39.76059 | 21.00004 | 36113 ft | 353 kts | 308° |
| 2026-05-07 17:57 | 39.80132 | 20.94744 | 36112 ft | 353 kts | 309° |
| 2026-05-07 17:58 | 39.83612 | 20.90236 | 36107 ft | 353 kts | 308° |
| 2026-05-07 17:58 | 39.87071 | 20.85758 | 36109 ft | 353 kts | 308° |
| 2026-05-07 17:59 | 39.90551 | 20.81244 | 36113 ft | 353 kts | 307° |
| 2026-05-07 17:59 | 39.94032 | 20.76724 | 36107 ft | 353 kts | 308° |
| 2026-05-07 18:00 | 39.97502 | 20.72198 | 36107 ft | 353 kts | 308° |
| 2026-05-07 18:00 | 40.00970 | 20.67665 | 36101 ft | 353 kts | 308° |
| 2026-05-07 18:01 | 40.04437 | 20.63129 | 36094 ft | 353 kts | 308° |
| 2026-05-07 18:01 | 40.08122 | 20.58841 | 36089 ft | 363 kts | 319° |
| 2026-05-07 18:02 | 40.14807 | 20.53948 | 36086 ft | 367 kts | 321° |
| 2026-05-07 18:03 | 40.19273 | 20.50688 | 36103 ft | 368 kts | 321° |
| 2026-05-07 18:03 | 40.23732 | 20.47409 | 36111 ft | 367 kts | 321° |
| 2026-05-07 18:04 | 40.28181 | 20.44129 | 36114 ft | 366 kts | 321° |
| 2026-05-07 18:04 | 40.32593 | 20.40884 | 36112 ft | 366 kts | 320° |
| 2026-05-07 18:05 | 40.37023 | 20.37618 | 36105 ft | 365 kts | 320° |
| 2026-05-07 18:05 | 40.41444 | 20.34352 | 36099 ft | 365 kts | 320° |
| 2026-05-07 18:06 | 40.45873 | 20.31082 | 36095 ft | 365 kts | 320° |
| 2026-05-07 18:06 | 40.50301 | 20.27808 | 36090 ft | 365 kts | 320° |
| 2026-05-07 18:07 | 40.54735 | 20.24532 | 36088 ft | 365 kts | 320° |
| 2026-05-07 18:07 | 40.59158 | 20.21249 | 36094 ft | 366 kts | 320° |
| 2026-05-07 18:08 | 40.63589 | 20.17961 | 36085 ft | 365 kts | 320° |
| 2026-05-07 18:08 | 40.68013 | 20.14658 | 36087 ft | 367 kts | 320° |
| 2026-05-07 18:09 | 40.72452 | 20.11336 | 36089 ft | 367 kts | 320° |
| 2026-05-07 18:09 | 40.76879 | 20.08027 | 36085 ft | 366 kts | 320° |
| 2026-05-07 18:10 | 40.81307 | 20.04721 | 36080 ft | 365 kts | 319° |
| 2026-05-07 18:10 | 40.85697 | 20.01432 | 36074 ft | 365 kts | 319° |
| 2026-05-07 18:11 | 40.90116 | 19.98106 | 36071 ft | 366 kts | 319° |
| 2026-05-07 18:11 | 40.94537 | 19.94782 | 36069 ft | 366 kts | 319° |
| 2026-05-07 18:12 | 40.98962 | 19.91444 | 36066 ft | 366 kts | 319° |
| 2026-05-07 18:12 | 41.03387 | 19.88098 | 36070 ft | 367 kts | 319° |
| 2026-05-07 18:13 | 41.07821 | 19.84749 | 36068 ft | 367 kts | 319° |
| 2026-05-07 18:13 | 41.12255 | 19.81395 | 36066 ft | 367 kts | 319° |
| 2026-05-07 18:14 | 41.15658 | 19.78769 | 36070 ft | 359 kts | 314° |
| 2026-05-07 18:14 | 41.19695 | 19.74897 | 36071 ft | 367 kts | 320° |
| 2026-05-07 18:15 | 41.24310 | 19.71831 | 36068 ft | 373 kts | 323° |
| 2026-05-07 18:15 | 41.28928 | 19.68733 | 36069 ft | 371 kts | 320° |
| 2026-05-07 18:16 | 41.33417 | 19.65393 | 36069 ft | 370 kts | 319° |
| 2026-05-07 18:16 | 41.37859 | 19.61950 | 36072 ft | 369 kts | 319° |
| 2026-05-07 18:17 | 41.42311 | 19.58508 | 36067 ft | 370 kts | 319° |
| 2026-05-07 18:17 | 41.46781 | 19.55087 | 36068 ft | 371 kts | 319° |
| 2026-05-07 18:18 | 41.51226 | 19.51682 | 36075 ft | 371 kts | 319° |
| 2026-05-07 18:18 | 41.55698 | 19.48243 | 36076 ft | 371 kts | 319° |
| 2026-05-07 18:19 | 41.60174 | 19.44796 | 36072 ft | 371 kts | 319° |
| 2026-05-07 18:19 | 41.64653 | 19.41343 | 36071 ft | 372 kts | 319° |
| 2026-05-07 18:20 | 41.69134 | 19.37889 | 36070 ft | 372 kts | 319° |
| 2026-05-07 18:20 | 41.73615 | 19.34419 | 36071 ft | 372 kts | 319° |
| 2026-05-07 18:21 | 41.78161 | 19.31036 | 36066 ft | 381 kts | 326° |
| 2026-05-07 18:21 | 41.83102 | 19.28356 | 36069 ft | 384 kts | 326° |
| 2026-05-07 18:22 | 41.88059 | 19.25682 | 36072 ft | 384 kts | 326° |
| 2026-05-07 18:22 | 41.93015 | 19.22997 | 36073 ft | 385 kts | 326° |
| 2026-05-07 18:23 | 41.97142 | 19.20751 | 36067 ft | 385 kts | 327° |
| 2026-05-07 18:23 | 42.02921 | 19.17607 | 36065 ft | 386 kts | 327° |
| 2026-05-07 18:24 | 42.07910 | 19.14900 | 36078 ft | 387 kts | 327° |
| 2026-05-07 18:24 | 42.12087 | 19.12620 | 36069 ft | 387 kts | 327° |
| 2026-05-07 18:25 | 42.17079 | 19.09883 | 36065 ft | 388 kts | 327° |
| 2026-05-07 18:25 | 42.22081 | 19.07146 | 36069 ft | 389 kts | 327° |
| 2026-05-07 18:26 | 42.27076 | 19.04408 | 36084 ft | 390 kts | 327° |
| 2026-05-07 18:26 | 42.32100 | 19.01643 | 36077 ft | 389 kts | 328° |
| 2026-05-07 18:27 | 42.37120 | 18.98879 | 36067 ft | 390 kts | 328° |
| 2026-05-07 18:27 | 42.42157 | 18.96100 | 36056 ft | 391 kts | 328° |
| 2026-05-07 18:28 | 42.47219 | 18.93309 | 36064 ft | 394 kts | 328° |
| 2026-05-07 18:28 | 42.52314 | 18.90495 | 36067 ft | 396 kts | 328° |
| 2026-05-07 18:29 | 42.57420 | 18.87669 | 36072 ft | 397 kts | 328° |
| 2026-05-07 18:29 | 42.62542 | 18.84818 | 36073 ft | 398 kts | 328° |
| 2026-05-07 18:30 | 42.67671 | 18.81954 | 36082 ft | 399 kts | 329° |
| 2026-05-07 18:30 | 42.72816 | 18.79087 | 36084 ft | 400 kts | 329° |
| 2026-05-07 18:31 | 42.77979 | 18.76207 | 36094 ft | 402 kts | 329° |
| 2026-05-07 18:31 | 42.83121 | 18.73344 | 36094 ft | 402 kts | 329° |
| 2026-05-07 18:32 | 42.88292 | 18.70445 | 36099 ft | 402 kts | 329° |
| 2026-05-07 18:32 | 42.93478 | 18.67531 | 36094 ft | 403 kts | 329° |
| 2026-05-07 18:33 | 42.98670 | 18.64615 | 36091 ft | 404 kts | 329° |
| 2026-05-07 18:33 | 43.03871 | 18.61686 | 36089 ft | 405 kts | 329° |
| 2026-05-07 18:34 | 43.09083 | 18.58749 | 36091 ft | 405 kts | 329° |
| 2026-05-07 18:34 | 43.14278 | 18.55749 | 36088 ft | 402 kts | 325° |
| 2026-05-07 18:35 | 43.19104 | 18.51978 | 36088 ft | 400 kts | 322° |
| 2026-05-07 18:35 | 43.23915 | 18.48146 | 36084 ft | 400 kts | 322° |
| 2026-05-07 18:36 | 43.28737 | 18.44301 | 36083 ft | 401 kts | 322° |
| 2026-05-07 18:36 | 43.33566 | 18.40446 | 36077 ft | 402 kts | 322° |
| 2026-05-07 18:37 | 43.38373 | 18.36598 | 36081 ft | 403 kts | 322° |
| 2026-05-07 18:37 | 43.43224 | 18.32705 | 36090 ft | 404 kts | 322° |
| 2026-05-07 18:38 | 43.48083 | 18.28797 | 36081 ft | 405 kts | 323° |
| 2026-05-07 18:38 | 43.52955 | 18.24880 | 36081 ft | 406 kts | 322° |
| 2026-05-07 18:39 | 43.57840 | 18.20945 | 36072 ft | 407 kts | 323° |
| 2026-05-07 18:39 | 43.62733 | 18.16994 | 36067 ft | 408 kts | 322° |
| 2026-05-07 18:40 | 43.67635 | 18.13020 | 36069 ft | 409 kts | 322° |
| 2026-05-07 18:40 | 43.72545 | 18.09043 | 36067 ft | 409 kts | 323° |
| 2026-05-07 18:41 | 43.77461 | 18.05054 | 36068 ft | 410 kts | 323° |
| 2026-05-07 18:41 | 43.82349 | 18.01075 | 36071 ft | 411 kts | 323° |
| 2026-05-07 18:42 | 43.87282 | 17.97058 | 36071 ft | 412 kts | 323° |
| 2026-05-07 18:42 | 43.92221 | 17.93032 | 36064 ft | 411 kts | 323° |
| 2026-05-07 18:43 | 43.97155 | 17.88994 | 36072 ft | 413 kts | 322° |
| 2026-05-07 18:43 | 44.02100 | 17.84936 | 36068 ft | 413 kts | 322° |
| 2026-05-07 18:44 | 44.07045 | 17.80860 | 36067 ft | 413 kts | 322° |
| 2026-05-07 18:44 | 44.11995 | 17.76771 | 36064 ft | 414 kts | 322° |
| 2026-05-07 18:45 | 44.16948 | 17.72678 | 36071 ft | 414 kts | 322° |
| 2026-05-07 18:45 | 44.21909 | 17.68572 | 36066 ft | 415 kts | 322° |
| 2026-05-07 18:46 | 44.26873 | 17.64464 | 36068 ft | 415 kts | 322° |
| 2026-05-07 18:46 | 44.31810 | 17.60376 | 36065 ft | 416 kts | 322° |
| 2026-05-07 18:47 | 44.36777 | 17.56247 | 36060 ft | 416 kts | 322° |
| 2026-05-07 18:47 | 44.41740 | 17.52106 | 36053 ft | 416 kts | 322° |
| 2026-05-07 18:48 | 44.46709 | 17.47959 | 36052 ft | 416 kts | 322° |
| 2026-05-07 18:48 | 44.51674 | 17.43803 | 36039 ft | 415 kts | 322° |
| 2026-05-07 18:49 | 44.56641 | 17.39637 | 36049 ft | 416 kts | 322° |
| 2026-05-07 18:49 | 44.61618 | 17.35456 | 36044 ft | 417 kts | 322° |
| 2026-05-07 18:50 | 44.66596 | 17.31266 | 36038 ft | 417 kts | 322° |
| 2026-05-07 18:50 | 44.71578 | 17.27060 | 36031 ft | 418 kts | 322° |
| 2026-05-07 18:51 | 44.76562 | 17.22853 | 36026 ft | 418 kts | 322° |
| 2026-05-07 18:51 | 44.81549 | 17.18631 | 36022 ft | 419 kts | 322° |
| 2026-05-07 18:52 | 44.86509 | 17.14429 | 36022 ft | 419 kts | 322° |
| 2026-05-07 18:52 | 44.91167 | 17.10466 | 36024 ft | 419 kts | 322° |
| 2026-05-07 18:53 | 44.96160 | 17.06209 | 36023 ft | 420 kts | 322° |
| 2026-05-07 18:53 | 45.01220 | 17.02058 | 36024 ft | 422 kts | 324° |
| 2026-05-07 18:54 | 45.06364 | 16.98032 | 36024 ft | 423 kts | 324° |
| 2026-05-07 18:54 | 45.11503 | 16.93993 | 36024 ft | 423 kts | 324° |
| 2026-05-07 18:55 | 45.16627 | 16.89901 | 36028 ft | 423 kts | 323° |
| 2026-05-07 18:55 | 45.21749 | 16.85784 | 36026 ft | 423 kts | 323° |
| 2026-05-07 18:56 | 45.26842 | 16.81691 | 36026 ft | 424 kts | 323° |
| 2026-05-07 18:56 | 45.31970 | 16.77569 | 36027 ft | 424 kts | 323° |
| 2026-05-07 18:57 | 45.37104 | 16.73436 | 36030 ft | 424 kts | 324° |
| 2026-05-07 18:57 | 45.42242 | 16.69293 | 36027 ft | 425 kts | 323° |
| 2026-05-07 18:58 | 45.47377 | 16.65131 | 36020 ft | 425 kts | 323° |
| 2026-05-07 18:58 | 45.52517 | 16.60954 | 36019 ft | 425 kts | 323° |
| 2026-05-07 18:59 | 45.57664 | 16.56775 | 36019 ft | 426 kts | 324° |
| 2026-05-07 18:59 | 45.62814 | 16.52586 | 36013 ft | 426 kts | 323° |
| 2026-05-07 19:00 | 45.67961 | 16.48383 | 36014 ft | 426 kts | 323° |
| 2026-05-07 19:00 | 45.73113 | 16.44176 | 36008 ft | 426 kts | 324° |
| 2026-05-07 19:01 | 45.78267 | 16.39958 | 36003 ft | 427 kts | 323° |
| 2026-05-07 19:01 | 45.83383 | 16.35754 | 36002 ft | 427 kts | 323° |
| 2026-05-07 19:02 | 45.88528 | 16.31503 | 36012 ft | 427 kts | 323° |
| 2026-05-07 19:02 | 45.93713 | 16.27309 | 36012 ft | 428 kts | 324° |
| 2026-05-07 19:03 | 45.98939 | 16.23194 | 36011 ft | 428 kts | 325° |
| 2026-05-07 19:03 | 46.04164 | 16.19072 | 36013 ft | 428 kts | 324° |
| 2026-05-07 19:04 | 46.09380 | 16.14930 | 36017 ft | 428 kts | 324° |
| 2026-05-07 19:04 | 46.14589 | 16.10765 | 36021 ft | 428 kts | 324° |
| 2026-05-07 19:05 | 46.19793 | 16.06588 | 36021 ft | 428 kts | 324° |
| 2026-05-07 19:05 | 46.24996 | 16.02403 | 36017 ft | 428 kts | 324° |
| 2026-05-07 19:06 | 46.30197 | 15.98223 | 36016 ft | 428 kts | 324° |
| 2026-05-07 19:06 | 46.38001 | 15.91951 | 36008 ft | 428 kts | 324° |
| 2026-05-07 19:07 | 46.43203 | 15.87761 | 36011 ft | 428 kts | 324° |
| 2026-05-07 19:07 | 46.48393 | 15.83553 | 36001 ft | 428 kts | 324° |
| 2026-05-07 19:08 | 46.53587 | 15.79325 | 36008 ft | 428 kts | 324° |
| 2026-05-07 19:08 | 46.58745 | 15.75124 | 36010 ft | 428 kts | 324° |
| 2026-05-07 19:09 | 46.63943 | 15.70896 | 36011 ft | 428 kts | 324° |
| 2026-05-07 19:09 | 46.69145 | 15.66652 | 36015 ft | 429 kts | 324° |
| 2026-05-07 19:10 | 46.74279 | 15.62261 | 36044 ft | 427 kts | 321° |
| 2026-05-07 19:10 | 46.79249 | 15.57547 | 36033 ft | 426 kts | 320° |
| 2026-05-07 19:11 | 46.84195 | 15.52769 | 36028 ft | 427 kts | 321° |
| 2026-05-07 19:11 | 46.89183 | 15.48043 | 36026 ft | 427 kts | 321° |
| 2026-05-07 19:12 | 46.94190 | 15.43351 | 36024 ft | 428 kts | 321° |
| 2026-05-07 19:12 | 46.99203 | 15.38637 | 36023 ft | 428 kts | 321° |
| 2026-05-07 19:13 | 47.04209 | 15.33897 | 36024 ft | 429 kts | 321° |
| 2026-05-07 19:13 | 47.09219 | 15.29140 | 36029 ft | 429 kts | 321° |
| 2026-05-07 19:14 | 47.14234 | 15.24371 | 36032 ft | 430 kts | 321° |
| 2026-05-07 19:14 | 47.19218 | 15.19622 | 36042 ft | 430 kts | 322° |
| 2026-05-07 19:15 | 47.24237 | 15.14836 | 36064 ft | 430 kts | 322° |
| 2026-05-07 19:15 | 47.29248 | 15.10035 | 36068 ft | 430 kts | 322° |
| 2026-05-07 19:16 | 47.34197 | 15.05110 | 36075 ft | 428 kts | 320° |
| 2026-05-07 19:16 | 47.39036 | 14.99985 | 36075 ft | 428 kts | 319° |
| 2026-05-07 19:17 | 47.43863 | 14.94843 | 36071 ft | 428 kts | 319° |
| 2026-05-07 19:17 | 47.48710 | 14.89733 | 36079 ft | 428 kts | 320° |
| 2026-05-07 19:18 | 47.53570 | 14.84643 | 36078 ft | 428 kts | 320° |
| 2026-05-07 19:18 | 47.58428 | 14.79538 | 36084 ft | 428 kts | 320° |
| 2026-05-07 19:19 | 47.63280 | 14.74408 | 36079 ft | 428 kts | 320° |
| 2026-05-07 19:19 | 47.68086 | 14.69297 | 36075 ft | 428 kts | 320° |
| 2026-05-07 19:20 | 47.72930 | 14.64159 | 36074 ft | 428 kts | 320° |
| 2026-05-07 19:20 | 47.77775 | 14.59005 | 36060 ft | 428 kts | 320° |
| 2026-05-07 19:21 | 47.82617 | 14.53837 | 36061 ft | 429 kts | 320° |
| 2026-05-07 19:21 | 47.87458 | 14.48648 | 36054 ft | 428 kts | 320° |
| 2026-05-07 19:22 | 47.92299 | 14.43459 | 36053 ft | 429 kts | 320° |
| 2026-05-07 19:22 | 47.97142 | 14.38267 | 36050 ft | 429 kts | 320° |
| 2026-05-07 19:23 | 48.01982 | 14.33064 | 36055 ft | 429 kts | 320° |
| 2026-05-07 19:23 | 48.06815 | 14.27839 | 36057 ft | 429 kts | 320° |
| 2026-05-07 19:24 | 48.11648 | 14.22609 | 36052 ft | 429 kts | 320° |
| 2026-05-07 19:24 | 48.16476 | 14.17377 | 36054 ft | 429 kts | 320° |
| 2026-05-07 19:25 | 48.21382 | 14.12274 | 36047 ft | 432 kts | 327° |
| 2026-05-07 19:25 | 48.27045 | 14.09241 | 36042 ft | 441 kts | 346° |
| 2026-05-07 19:26 | 48.33103 | 14.07682 | 36044 ft | 442 kts | 346° |
| 2026-05-07 19:26 | 48.39173 | 14.06109 | 36045 ft | 443 kts | 346° |
| 2026-05-07 19:27 | 48.45242 | 14.04513 | 36046 ft | 443 kts | 346° |
| 2026-05-07 19:27 | 48.51309 | 14.02908 | 36050 ft | 443 kts | 346° |
| 2026-05-07 19:28 | 48.57383 | 14.01306 | 36051 ft | 443 kts | 346° |
| 2026-05-07 19:28 | 48.63457 | 13.99709 | 36051 ft | 443 kts | 347° |
| 2026-05-07 19:29 | 48.69508 | 13.98001 | 36050 ft | 440 kts | 341° |
| 2026-05-07 19:29 | 48.75374 | 13.95376 | 36052 ft | 440 kts | 340° |
| 2026-05-07 19:30 | 48.81240 | 13.92741 | 36050 ft | 440 kts | 340° |
| 2026-05-07 19:30 | 48.87103 | 13.90106 | 36053 ft | 440 kts | 340° |
| 2026-05-07 19:31 | 48.92970 | 13.87462 | 36048 ft | 440 kts | 340° |
| 2026-05-07 19:31 | 48.98836 | 13.84815 | 36044 ft | 440 kts | 340° |
| 2026-05-07 19:32 | 49.04658 | 13.82179 | 36047 ft | 440 kts | 340° |
| 2026-05-07 19:32 | 49.10556 | 13.79498 | 36047 ft | 440 kts | 340° |
| 2026-05-07 19:33 | 49.16418 | 13.76821 | 36041 ft | 440 kts | 340° |
| 2026-05-07 19:33 | 49.22243 | 13.74159 | 36040 ft | 440 kts | 340° |
| 2026-05-07 19:34 | 49.28106 | 13.71476 | 36038 ft | 440 kts | 340° |
| 2026-05-07 19:34 | 49.33963 | 13.68787 | 36038 ft | 440 kts | 340° |
| 2026-05-07 19:35 | 49.39824 | 13.66088 | 36036 ft | 440 kts | 340° |
| 2026-05-07 19:35 | 49.45680 | 13.63380 | 36039 ft | 440 kts | 340° |
| 2026-05-07 19:36 | 49.51540 | 13.60673 | 36041 ft | 440 kts | 340° |
| 2026-05-07 19:36 | 49.57394 | 13.57964 | 36044 ft | 440 kts | 340° |
| 2026-05-07 19:37 | 49.63252 | 13.55240 | 36047 ft | 439 kts | 340° |
| 2026-05-07 19:37 | 49.69108 | 13.52508 | 36048 ft | 439 kts | 340° |
| 2026-05-07 19:38 | 49.74961 | 13.49787 | 36048 ft | 439 kts | 340° |
| 2026-05-07 19:38 | 49.80811 | 13.47052 | 36046 ft | 439 kts | 340° |
| 2026-05-07 19:39 | 49.86656 | 13.44306 | 36044 ft | 439 kts | 340° |
| 2026-05-07 19:39 | 49.91516 | 13.42020 | 36043 ft | 439 kts | 340° |
| 2026-05-07 19:40 | 49.98312 | 13.38824 | 36043 ft | 439 kts | 341° |
| 2026-05-07 19:40 | 50.04155 | 13.36067 | 36043 ft | 439 kts | 340° |
| 2026-05-07 19:41 | 50.09992 | 13.33292 | 36042 ft | 439 kts | 341° |
| 2026-05-07 19:41 | 50.14914 | 13.31155 | 35618 ft | 440 kts | 351° |
| 2026-05-07 19:42 | 50.17965 | 13.31089 | 35160 ft | 439 kts | 6° |
| 2026-05-07 19:42 | 50.20969 | 13.31813 | 34698 ft | 435 kts | 7° |
| 2026-05-07 19:42 | 50.23908 | 13.32575 | 34266 ft | 432 kts | 8° |
| 2026-05-07 19:42 | 50.26854 | 13.33357 | 33814 ft | 427 kts | 8° |
| 2026-05-07 19:43 | 50.29768 | 13.34141 | 33344 ft | 423 kts | 8° |
| 2026-05-07 19:43 | 50.32646 | 13.34920 | 32895 ft | 418 kts | 8° |
| 2026-05-07 19:43 | 50.35494 | 13.35693 | 32465 ft | 413 kts | 8° |
| 2026-05-07 19:43 | 50.38306 | 13.36451 | 32048 ft | 408 kts | 8° |
| 2026-05-07 19:44 | 50.41087 | 13.37194 | 31637 ft | 403 kts | 7° |
| 2026-05-07 19:44 | 50.43835 | 13.37921 | 31235 ft | 398 kts | 7° |
| 2026-05-07 19:44 | 50.46553 | 13.38639 | 30847 ft | 394 kts | 7° |
| 2026-05-07 19:44 | 50.49238 | 13.39353 | 30451 ft | 389 kts | 8° |
| 2026-05-07 19:45 | 50.51891 | 13.40064 | 30114 ft | 385 kts | 8° |
| 2026-05-07 19:45 | 50.54523 | 13.40771 | 30046 ft | 383 kts | 8° |
| 2026-05-07 19:45 | 50.59782 | 13.42176 | 29962 ft | 383 kts | 8° |
| 2026-05-07 19:46 | 50.62393 | 13.42876 | 29499 ft | 380 kts | 8° |
| 2026-05-07 19:46 | 50.64986 | 13.43572 | 29024 ft | 376 kts | 8° |
| 2026-05-07 19:46 | 50.67557 | 13.44265 | 28559 ft | 373 kts | 8° |
| 2026-05-07 19:46 | 50.70107 | 13.44950 | 28105 ft | 370 kts | 8° |
| 2026-05-07 19:47 | 50.72634 | 13.45631 | 27654 ft | 367 kts | 8° |
| 2026-05-07 19:47 | 50.75140 | 13.46307 | 27213 ft | 364 kts | 8° |
| 2026-05-07 19:47 | 50.77633 | 13.46979 | 26771 ft | 362 kts | 8° |
| 2026-05-07 19:47 | 50.80102 | 13.47647 | 26330 ft | 359 kts | 8° |
| 2026-05-07 19:48 | 50.82553 | 13.48311 | 25897 ft | 356 kts | 8° |
| 2026-05-07 19:48 | 50.84988 | 13.48970 | 25466 ft | 354 kts | 9° |
| 2026-05-07 19:48 | 50.87406 | 13.49624 | 25033 ft | 351 kts | 9° |
| 2026-05-07 19:48 | 50.89810 | 13.50277 | 24607 ft | 349 kts | 9° |
| 2026-05-07 19:49 | 50.92193 | 13.50925 | 24181 ft | 347 kts | 9° |
| 2026-05-07 19:49 | 50.94565 | 13.51569 | 23764 ft | 344 kts | 9° |
| 2026-05-07 19:49 | 50.96918 | 13.52209 | 23302 ft | 342 kts | 9° |
| 2026-05-07 19:49 | 50.99259 | 13.52847 | 22822 ft | 341 kts | 9° |
| 2026-05-07 19:50 | 51.01591 | 13.53483 | 22343 ft | 339 kts | 9° |
| 2026-05-07 19:50 | 51.03910 | 13.54118 | 21905 ft | 337 kts | 9° |
| 2026-05-07 19:50 | 51.06216 | 13.54751 | 21469 ft | 335 kts | 9° |
| 2026-05-07 19:50 | 51.08511 | 13.55378 | 21046 ft | 334 kts | 9° |
| 2026-05-07 19:51 | 51.10793 | 13.56001 | 20626 ft | 332 kts | 9° |
| 2026-05-07 19:51 | 51.13067 | 13.56624 | 20213 ft | 331 kts | 9° |
| 2026-05-07 19:51 | 51.15300 | 13.57239 | 20060 ft | 330 kts | 9° |
| 2026-05-07 19:51 | 51.17602 | 13.57873 | 20080 ft | 332 kts | 9° |
| 2026-05-07 19:52 | 51.19845 | 13.58490 | 20080 ft | 332 kts | 9° |
| 2026-05-07 19:52 | 51.22122 | 13.59118 | 20080 ft | 332 kts | 9° |
| 2026-05-07 19:52 | 51.24409 | 13.59633 | 20074 ft | 331 kts | 0° |
| 2026-05-07 19:52 | 51.26685 | 13.59159 | 20082 ft | 331 kts | 345° |
| 2026-05-07 19:53 | 51.28914 | 13.58242 | 20075 ft | 331 kts | 345° |
| 2026-05-07 19:53 | 51.31145 | 13.57307 | 20079 ft | 331 kts | 345° |
| 2026-05-07 19:53 | 51.33376 | 13.56364 | 20078 ft | 331 kts | 345° |
| 2026-05-07 19:53 | 51.35606 | 13.55416 | 20075 ft | 332 kts | 345° |
| 2026-05-07 19:54 | 51.37833 | 13.54465 | 20077 ft | 331 kts | 345° |
| 2026-05-07 19:54 | 51.40063 | 13.53515 | 20076 ft | 331 kts | 345° |
| 2026-05-07 19:54 | 51.42294 | 13.52570 | 19550 ft | 337 kts | 345° |
| 2026-05-07 19:54 | 51.44602 | 13.51592 | 18770 ft | 347 kts | 345° |
| 2026-05-07 19:55 | 51.46949 | 13.50597 | 18264 ft | 349 kts | 345° |
| 2026-05-07 19:55 | 51.49290 | 13.49605 | 17806 ft | 347 kts | 345° |
| 2026-05-07 19:55 | 51.51610 | 13.48622 | 17392 ft | 344 kts | 345° |
| 2026-05-07 19:55 | 51.53914 | 13.47640 | 16976 ft | 341 kts | 345° |
| 2026-05-07 19:56 | 51.56200 | 13.46662 | 16576 ft | 339 kts | 345° |
| 2026-05-07 19:56 | 51.58471 | 13.45688 | 16176 ft | 337 kts | 345° |
| 2026-05-07 19:56 | 51.60728 | 13.44719 | 15784 ft | 335 kts | 345° |
| 2026-05-07 19:56 | 51.62972 | 13.43759 | 15399 ft | 333 kts | 345° |
| 2026-05-07 19:57 | 51.65203 | 13.42801 | 15009 ft | 331 kts | 345° |
| 2026-05-07 19:57 | 51.67424 | 13.41846 | 14623 ft | 329 kts | 345° |
| 2026-05-07 19:57 | 51.69635 | 13.40897 | 14233 ft | 328 kts | 345° |
| 2026-05-07 19:57 | 51.71805 | 13.39968 | 13848 ft | 327 kts | 345° |
| 2026-05-07 19:58 | 51.73998 | 13.39030 | 13427 ft | 325 kts | 345° |
| 2026-05-07 19:58 | 51.76173 | 13.38096 | 13041 ft | 322 kts | 345° |
| 2026-05-07 19:58 | 51.78328 | 13.37166 | 12648 ft | 319 kts | 345° |
| 2026-05-07 19:58 | 51.80468 | 13.36243 | 12255 ft | 317 kts | 345° |
| 2026-05-07 19:59 | 51.82594 | 13.35328 | 11867 ft | 315 kts | 345° |
| 2026-05-07 19:59 | 51.84701 | 13.34418 | 11470 ft | 313 kts | 345° |
| 2026-05-07 19:59 | 51.86800 | 13.33510 | 11069 ft | 311 kts | 345° |
| 2026-05-07 19:59 | 51.88883 | 13.32606 | 10677 ft | 309 kts | 345° |
| 2026-05-07 20:00 | 51.90955 | 13.31705 | 10273 ft | 308 kts | 346° |
| 2026-05-07 20:00 | 51.93011 | 13.30809 | 9928 ft | 303 kts | 346° |
| 2026-05-07 20:00 | 51.95012 | 13.29939 | 9767 ft | 293 kts | 346° |
| 2026-05-07 20:00 | 51.96971 | 13.29088 | 9378 ft | 290 kts | 346° |
| 2026-05-07 20:01 | 51.98913 | 13.28244 | 8986 ft | 288 kts | 346° |
| 2026-05-07 20:01 | 52.00846 | 13.27401 | 8590 ft | 286 kts | 346° |
| 2026-05-07 20:01 | 52.02761 | 13.26567 | 8199 ft | 284 kts | 346° |
| 2026-05-07 20:01 | 52.04664 | 13.25739 | 7801 ft | 282 kts | 346° |
| 2026-05-07 20:02 | 52.06553 | 13.24914 | 7408 ft | 280 kts | 346° |
| 2026-05-07 20:02 | 52.08432 | 13.24091 | 6943 ft | 281 kts | 346° |
| 2026-05-07 20:02 | 52.10300 | 13.23270 | 6681 ft | 273 kts | 347° |
| 2026-05-07 20:02 | 52.12093 | 13.22477 | 6562 ft | 261 kts | 347° |
| 2026-05-07 20:03 | 52.13806 | 13.21722 | 6439 ft | 249 kts | 347° |
| 2026-05-07 20:03 | 52.15436 | 13.21007 | 6320 ft | 236 kts | 347° |
| 2026-05-07 20:03 | 52.16987 | 13.20330 | 6229 ft | 227 kts | 347° |
| 2026-05-07 20:03 | 52.18512 | 13.19667 | 6128 ft | 229 kts | 347° |
| 2026-05-07 20:04 | 52.20125 | 13.19347 | 5599 ft | 239 kts | 9° |
| 2026-05-07 20:04 | 52.21722 | 13.20113 | 4965 ft | 247 kts | 21° |
| 2026-05-07 20:04 | 52.23339 | 13.21073 | 4302 ft | 246 kts | 21° |
| 2026-05-07 20:04 | 52.24910 | 13.22011 | 3884 ft | 235 kts | 21° |
| 2026-05-07 20:05 | 52.26403 | 13.22900 | 3570 ft | 223 kts | 21° |
| 2026-05-07 20:05 | 52.27820 | 13.23764 | 3272 ft | 212 kts | 26° |
| 2026-05-07 20:05 | 52.28990 | 13.25068 | 3043 ft | 198 kts | 47° |
| 2026-05-07 20:05 | 52.29754 | 13.26859 | 2820 ft | 190 kts | 66° |
| 2026-05-07 20:06 | 52.30236 | 13.28850 | 2595 ft | 186 kts | 68° |
| 2026-05-07 20:06 | 52.30704 | 13.30792 | 2314 ft | 181 kts | 68° |
| 2026-05-07 20:06 | 52.31151 | 13.32653 | 2068 ft | 169 kts | 68° |
| 2026-05-07 20:06 | 52.31565 | 13.34383 | 1841 ft | 159 kts | 68° |
| 2026-05-07 20:07 | 52.31962 | 13.36041 | 1628 ft | 155 kts | 68° |
| 2026-05-07 20:07 | 52.32354 | 13.37676 | 1417 ft | 154 kts | 68° |
| 2026-05-07 20:07 | 52.32736 | 13.39262 | 1178 ft | 147 kts | 68° |
| 2026-05-07 20:07 | 52.33108 | 13.40817 | 947 ft | 148 kts | 68° |
| 2026-05-07 20:08 | 52.33487 | 13.42402 | 752 ft | 151 kts | 68° |
| 2026-05-07 20:08 | 52.33874 | 13.44023 | 563 ft | 155 kts | 69° |
| 2026-05-07 20:08 | 52.34261 | 13.45660 | 382 ft | 155 kts | 69° |
| 2026-05-07 20:08 | 52.34656 | 13.47317 | 172 ft | 154 kts | 68° |
| 2026-05-07 20:09 | 52.34993 | 13.48733 | 159 ft | 112 kts | 69° |
| 2026-05-07 20:09 | 52.35242 | 13.49779 | 157 ft | 88 kts | 69° |
| 2026-05-07 20:09 | 52.35415 | 13.50439 | 157 ft | 33 kts | 48° |
| 2026-05-07 20:10 | 52.35656 | 13.50787 | 151 ft | 25 kts | 38° |
| 2026-05-07 20:10 | 52.35821 | 13.50798 | 152 ft | 25 kts | 341° |
| 2026-05-07 20:10 | 52.35927 | 13.50852 | 154 ft | 16 kts | 68° |
| 2026-05-07 20:10 | 52.35960 | 13.51004 | 156 ft | 13 kts | 68° |
| 2026-05-07 20:11 | 52.35994 | 13.51140 | 155 ft | 12 kts | 67° |
| 2026-05-07 20:11 | 52.36028 | 13.51273 | 155 ft | 17 kts | 66° |
| 2026-05-07 20:11 | 52.36077 | 13.51476 | 156 ft | 20 kts | 67° |
| 2026-05-07 20:11 | 52.36114 | 13.51629 | 156 ft | 13 kts | 68° |
| 2026-05-07 20:12 | 52.36156 | 13.51748 | 156 ft | 11 kts | 28° |
| 2026-05-07 20:12 | 52.36216 | 13.51721 | 155 ft | 2 kts | 339° |
| 2026-05-07 20:12 | 52.36219 | 13.51718 | 156 ft | 1 kts | 339° |
| 2026-05-07 20:12 | 52.36225 | 13.51715 | 156 ft | 0 kts | 339° |